Flight Track Log - Related Links

Times and Time Zones

All times are in EDT time to prevent confusion due to time zone crossing. See the OPT712 flight status page for this flight to view local times or setup timezone preferences in your user account.

Time Position Orientation Groundspeed Altitude Reporting Facility
EDT Latitude Longitude Course Direction KTS MPH feet Rate Location/Type
Sun 06:25:22 PM 39.4936 -120.1956 334° Northwest 259 298 13,000  Level Oakland Center
Sun 06:26:24 PM 39.4431 -120.2644 226° Southwest 298 343 15,000 1,366 Climbing Oakland Center
Sun 06:27:25 PM 39.3503 -120.2439 170° South 343 395 15,800 393 Climbing Oakland Center
Sun 06:28:26 PM 39.2486 -120.2122 166° South 369 425 15,800 -98 Level Oakland Center
Sun 06:29:00 PM 38.7803 -120.1212 165° South  Level FlightAware Approximate
Sun 06:29:28 PM 39.1478 -120.1836 168° South 371 427 15,600  Level Oakland Center
Sun 06:30:29 PM 39.0525 -120.1553 167° South 356 410 16,000 197 Climbing Oakland Center
Sun 06:31:30 PM 38.9503 -120.1428 175° South 366 421 16,000  Level Oakland Center
Sun 06:32:32 PM 38.8469 -120.1572 186° South 373 429 16,000  Level Oakland Center
Sun 06:33:33 PM 38.7439 -120.1725 187° South 373 429 16,000  Level Oakland Center
Sun 06:34:35 PM 38.6239 -120.1900 186° South 363 418 16,000  Level Oakland Center
Sun 06:35:36 PM 38.5228 -120.2058 187° South 364 419 16,000  Level Oakland Center
Sun 06:36:37 PM 38.4214 -120.2222 187° South 368 423 16,000  Level Oakland Center
Sun 06:37:39 PM 38.3186 -120.2369 186° South 368 423 16,000 -49 Level Oakland Center
Sun 06:38:40 PM 38.2172 -120.2517 187° South 367 422 15,900 -49 Descending Oakland Center
Sun 06:39:42 PM 38.1175 -120.2669 187° South 361 415 15,900  Level Oakland Center
Sun 06:40:43 PM 38.0169 -120.2817 187° South 363 418 15,900  Level Oakland Center
Sun 06:41:45 PM 37.9075 -120.2989 187° South 384 442 15,900  Level Oakland Center
Sun 06:42:46 PM 37.7925 -120.3167 187° South 404 465 15,900  Level Oakland Center
Sun 06:43:48 PM 37.6733 -120.3339 187° South 422 486 15,900  Level Oakland Center
Sun 06:44:49 PM 37.5469 -120.3586 189° South 463 533 15,900 49 Level Oakland Center
Sun 06:45:51 PM 37.4028 -120.3781 186° South 436 502 16,000 58 Climbing Oakland Center
Sun 06:46:32 PM 37.3167 -120.3833 183° South 453 521 16,000  Level Northern Cal TRACON
Sun 06:47:32 PM 37.2167 -120.4500 208° Southwest 509 586 16,000 -250 Level Northern Cal TRACON
Sun 06:48:32 PM 37.1833 -120.5833 253° West 415 478 15,500 -1,300 Descending Northern Cal TRACON
Sun 06:49:32 PM 37.1500 -120.7167 253° West 392 451 13,400 -2,000 Descending Northern Cal TRACON
Sun 06:50:32 PM 37.1167 -120.8333 250° West 379 436 11,500 -1,750 Descending Northern Cal TRACON
Sun 06:51:32 PM 37.1000 -120.9667 261° West 373 429 9,900 -738 Descending Northern Cal TRACON
Sun 06:52:34 PM 37.0667 -121.0833 250° West 369 425 10,000 50 Climbing Northern Cal TRACON
Sun 06:53:32 PM 37.0333 -121.2167 253° West 374 430 10,000  Level Northern Cal TRACON
Sun 06:54:03 PM 37.0261 -121.2808 262° West 373 429 10,000 -587 Level Oakland Center
Sun 06:55:04 PM 37.0369 -121.3894 277° West 318 366 9,100 -1,024 Descending Oakland Center
Sun 06:56:06 PM 37.0719 -121.4597 302° West 300 345 7,900 -1,073 Descending Oakland Center
Sun 06:58:00 PM 37.1495 -121.5844 314° West  Level Estimated
Sun 06:59:10 PM 37.1975 -121.7225 314° West 269 310 4,700  Level Oakland Center
Sun 07:00:11 PM 37.2336 -121.7978 301° West 259 298 3,200 -1,220 Descending Oakland Center
Sun 07:01:13 PM 37.2822 -121.8450 322° Northwest 234 269 2,200 -1,073 Descending Oakland Center
Sun 07:02:14 PM 37.3181 -121.8828 North 197 227 1,000 -1,024 Descending Oakland Center
Sun 07:03:00 PM 37.3500 -121.9167 North  Level FlightAware Approximate
Sun 07:03:16 PM 37.3539 -121.9217 319° Northwest 159 183 100  Level Oakland Center
Sun 07:07:00 PM 37.3500 -121.9167 North  Level FlightAware Approximate
Sun 07:10:00 PM 37.3627 -121.9291 North  Level Estimated

Login

Don't have an account? Register now (free) for customized features, flight alerts, and more!